sensor_id;sensor_type;location;lat;lon;timestamp;temperature;humidity
18083;DHT22;9168;51.194;6.840;2023-04-01T00:01:05;10.20;99.90
18083;DHT22;9168;51.194;6.840;2023-04-01T00:03:33;10.20;99.90
18083;DHT22;9168;51.194;6.840;2023-04-01T00:06:01;10.20;99.90
18083;DHT22;9168;51.194;6.840;2023-04-01T00:08:28;10.20;99.90
18083;DHT22;9168;51.194;6.840;2023-04-01T00:10:56;10.20;99.90
18083;DHT22;9168;51.194;6.840;2023-04-01T00:13:23;10.20;99.90
18083;DHT22;9168;51.194;6.840;2023-04-01T00:15:51;10.20;99.90
18083;DHT22;9168;51.194;6.840;2023-04-01T00:18:18;10.20;99.90
18083;DHT22;9168;51.194;6.840;2023-04-01T00:20:46;10.20;99.90
18083;DHT22;9168;51.194;6.840;2023-04-01T00:23:15;10.20;99.90
18083;DHT22;9168;51.194;6.840;2023-04-01T00:25:43;10.20;99.90
18083;DHT22;9168;51.194;6.840;2023-04-01T00:28:10;10.20;99.90
18083;DHT22;9168;51.194;6.840;2023-04-01T00:30:37;10.20;99.90
18083;DHT22;9168;51.194;6.840;2023-04-01T00:33:04;10.20;99.90
18083;DHT22;9168;51.194;6.840;2023-04-01T00:35:31;10.20;99.90
18083;DHT22;9168;51.194;6.840;2023-04-01T00:37:59;10.30;99.90
18083;DHT22;9168;51.194;6.840;2023-04-01T00:40:30;10.30;99.90
18083;DHT22;9168;51.194;6.840;2023-04-01T00:42:58;10.20;99.90
18083;DHT22;9168;51.194;6.840;2023-04-01T00:45:32;10.20;99.90
18083;DHT22;9168;51.194;6.840;2023-04-01T00:48:02;10.20;99.90
18083;DHT22;9168;51.194;6.840;2023-04-01T00:50:31;10.20;99.90
18083;DHT22;9168;51.194;6.840;2023-04-01T00:53:00;10.20;99.90
18083;DHT22;9168;51.194;6.840;2023-04-01T00:55:32;10.20;99.90
18083;DHT22;9168;51.194;6.840;2023-04-01T00:58:00;10.20;99.90
18083;DHT22;9168;51.194;6.840;2023-04-01T01:00:28;10.20;99.90
18083;DHT22;9168;51.194;6.840;2023-04-01T01:02:57;10.20;99.90
18083;DHT22;9168;51.194;6.840;2023-04-01T01:05:32;10.20;99.90
18083;DHT22;9168;51.194;6.840;2023-04-01T01:08:04;10.20;99.90
18083;DHT22;9168;51.194;6.840;2023-04-01T01:10:38;10.20;99.90
18083;DHT22;9168;51.194;6.840;2023-04-01T01:13:11;10.20;99.90
18083;DHT22;9168;51.194;6.840;2023-04-01T01:15:44;10.20;99.90
18083;DHT22;9168;51.194;6.840;2023-04-01T01:18:19;10.20;99.90
18083;DHT22;9168;51.194;6.840;2023-04-01T01:24:22;10.20;99.90
18083;DHT22;9168;51.194;6.840;2023-04-01T01:27:00;10.20;99.90
18083;DHT22;9168;51.194;6.840;2023-04-01T01:35:24;10.20;99.90
18083;DHT22;9168;51.194;6.840;2023-04-01T01:37:55;10.20;99.90
18083;DHT22;9168;51.194;6.840;2023-04-01T01:40:25;10.20;99.90
18083;DHT22;9168;51.194;6.840;2023-04-01T01:42:56;10.10;99.90
18083;DHT22;9168;51.194;6.840;2023-04-01T01:45:26;10.10;99.90
18083;DHT22;9168;51.194;6.840;2023-04-01T01:47:55;10.10;99.90
18083;DHT22;9168;51.194;6.840;2023-04-01T01:50:25;10.10;99.90
18083;DHT22;9168;51.194;6.840;2023-04-01T01:53:00;10.10;99.90
18083;DHT22;9168;51.194;6.840;2023-04-01T01:55:29;10.10;99.90
18083;DHT22;9168;51.194;6.840;2023-04-01T01:57:58;10.10;99.90
18083;DHT22;9168;51.194;6.840;2023-04-01T02:00:26;10.10;99.90
18083;DHT22;9168;51.194;6.840;2023-04-01T02:02:54;10.10;99.90
18083;DHT22;9168;51.194;6.840;2023-04-01T02:05:25;10.10;99.90
18083;DHT22;9168;51.194;6.840;2023-04-01T02:08:00;10.10;99.90
18083;DHT22;9168;51.194;6.840;2023-04-01T02:10:29;10.10;99.90
18083;DHT22;9168;51.194;6.840;2023-04-01T02:13:02;10.10;99.90
18083;DHT22;9168;51.194;6.840;2023-04-01T02:15:33;10.00;99.90
18083;DHT22;9168;51.194;6.840;2023-04-01T02:18:04;10.00;99.90
18083;DHT22;9168;51.194;6.840;2023-04-01T02:20:34;9.90;99.90
18083;DHT22;9168;51.194;6.840;2023-04-01T02:23:03;9.90;99.90
18083;DHT22;9168;51.194;6.840;2023-04-01T02:25:35;9.90;99.90
18083;DHT22;9168;51.194;6.840;2023-04-01T02:28:04;10.00;99.90
18083;DHT22;9168;51.194;6.840;2023-04-01T02:30:34;10.00;99.90
18083;DHT22;9168;51.194;6.840;2023-04-01T02:33:03;9.90;99.90
18083;DHT22;9168;51.194;6.840;2023-04-01T02:35:34;9.90;99.90
18083;DHT22;9168;51.194;6.840;2023-04-01T02:38:02;9.90;99.90
18083;DHT22;9168;51.194;6.840;2023-04-01T02:40:29;9.90;99.90
18083;DHT22;9168;51.194;6.840;2023-04-01T02:42:56;9.90;99.90
18083;DHT22;9168;51.194;6.840;2023-04-01T02:45:23;9.80;99.90
18083;DHT22;9168;51.194;6.840;2023-04-01T02:47:49;9.80;99.90
18083;DHT22;9168;51.194;6.840;2023-04-01T02:53:07;9.70;99.90
18083;DHT22;9168;51.194;6.840;2023-04-01T02:55:37;9.70;99.90
18083;DHT22;9168;51.194;6.840;2023-04-01T03:02:32;9.70;99.90
18083;DHT22;9168;51.194;6.840;2023-04-01T03:08:29;9.70;99.90
18083;DHT22;9168;51.194;6.840;2023-04-01T03:10:56;9.70;99.90
18083;DHT22;9168;51.194;6.840;2023-04-01T03:13:23;9.70;99.90
18083;DHT22;9168;51.194;6.840;2023-04-01T03:15:50;9.80;99.90
18083;DHT22;9168;51.194;6.840;2023-04-01T03:18:17;9.80;99.90
18083;DHT22;9168;51.194;6.840;2023-04-01T03:20:44;9.80;99.90
18083;DHT22;9168;51.194;6.840;2023-04-01T03:52:55;9.80;99.90
18083;DHT22;9168;51.194;6.840;2023-04-01T03:55:23;9.80;99.90
18083;DHT22;9168;51.194;6.840;2023-04-01T03:57:50;9.70;99.90
18083;DHT22;9168;51.194;6.840;2023-04-01T04:00:17;9.80;99.90
18083;DHT22;9168;51.194;6.840;2023-04-01T04:02:44;9.80;99.90
18083;DHT22;9168;51.194;6.840;2023-04-01T04:05:11;9.80;99.90
18083;DHT22;9168;51.194;6.840;2023-04-01T04:07:39;9.80;99.90
18083;DHT22;9168;51.194;6.840;2023-04-01T04:10:08;9.80;99.90
18083;DHT22;9168;51.194;6.840;2023-04-01T04:12:35;9.80;99.90
18083;DHT22;9168;51.194;6.840;2023-04-01T04:15:02;9.80;99.90
18083;DHT22;9168;51.194;6.840;2023-04-01T04:17:29;9.80;99.90
18083;DHT22;9168;51.194;6.840;2023-04-01T04:19:56;9.80;99.90
18083;DHT22;9168;51.194;6.840;2023-04-01T04:22:23;9.70;99.90
18083;DHT22;9168;51.194;6.840;2023-04-01T04:24:50;9.80;99.90
18083;DHT22;9168;51.194;6.840;2023-04-01T04:27:18;9.80;99.90
18083;DHT22;9168;51.194;6.840;2023-04-01T04:29:45;9.80;99.90
18083;DHT22;9168;51.194;6.840;2023-04-01T04:32:12;9.80;99.90
18083;DHT22;9168;51.194;6.840;2023-04-01T04:34:39;9.80;99.90
18083;DHT22;9168;51.194;6.840;2023-04-01T04:37:06;9.70;99.90
18083;DHT22;9168;51.194;6.840;2023-04-01T04:39:33;9.70;99.90
18083;DHT22;9168;51.194;6.840;2023-04-01T04:42:00;9.70;99.90
18083;DHT22;9168;51.194;6.840;2023-04-01T04:44:28;9.70;99.90
18083;DHT22;9168;51.194;6.840;2023-04-01T04:46:55;9.70;99.90
18083;DHT22;9168;51.194;6.840;2023-04-01T04:49:22;9.80;99.90
18083;DHT22;9168;51.194;6.840;2023-04-01T04:51:49;9.80;99.90
18083;DHT22;9168;51.194;6.840;2023-04-01T04:54:17;9.80;99.90
18083;DHT22;9168;51.194;6.840;2023-04-01T04:56:44;9.80;99.90
18083;DHT22;9168;51.194;6.840;2023-04-01T04:59:11;9.80;99.90
18083;DHT22;9168;51.194;6.840;2023-04-01T05:01:39;9.80;99.90
18083;DHT22;9168;51.194;6.840;2023-04-01T05:04:06;9.80;99.90
18083;DHT22;9168;51.194;6.840;2023-04-01T05:06:33;9.80;99.90
18083;DHT22;9168;51.194;6.840;2023-04-01T05:09:00;9.80;99.90
18083;DHT22;9168;51.194;6.840;2023-04-01T05:11:27;9.80;99.90
18083;DHT22;9168;51.194;6.840;2023-04-01T05:13:54;9.80;99.90
18083;DHT22;9168;51.194;6.840;2023-04-01T05:16:21;9.80;99.90
18083;DHT22;9168;51.194;6.840;2023-04-01T05:18:49;9.70;99.90
18083;DHT22;9168;51.194;6.840;2023-04-01T05:21:16;9.70;99.90
18083;DHT22;9168;51.194;6.840;2023-04-01T05:23:43;9.70;99.90
18083;DHT22;9168;51.194;6.840;2023-04-01T05:26:13;9.70;99.90
18083;DHT22;9168;51.194;6.840;2023-04-01T05:28:40;9.70;99.90
18083;DHT22;9168;51.194;6.840;2023-04-01T05:31:07;9.70;99.90
18083;DHT22;9168;51.194;6.840;2023-04-01T05:33:34;9.70;99.90
18083;DHT22;9168;51.194;6.840;2023-04-01T05:36:11;9.80;99.90
18083;DHT22;9168;51.194;6.840;2023-04-01T05:38:38;9.80;99.90
18083;DHT22;9168;51.194;6.840;2023-04-01T05:41:05;9.70;99.90
18083;DHT22;9168;51.194;6.840;2023-04-01T05:43:32;9.70;99.90
18083;DHT22;9168;51.194;6.840;2023-04-01T05:46:02;9.70;99.90
18083;DHT22;9168;51.194;6.840;2023-04-01T05:48:28;9.80;99.90
18083;DHT22;9168;51.194;6.840;2023-04-01T05:50:55;9.80;99.90
18083;DHT22;9168;51.194;6.840;2023-04-01T05:53:24;9.80;99.90
18083;DHT22;9168;51.194;6.840;2023-04-01T05:55:50;9.80;99.90
18083;DHT22;9168;51.194;6.840;2023-04-01T05:58:17;9.80;99.90
18083;DHT22;9168;51.194;6.840;2023-04-01T06:00:44;9.70;99.90
18083;DHT22;9168;51.194;6.840;2023-04-01T06:03:11;9.80;99.90
18083;DHT22;9168;51.194;6.840;2023-04-01T06:05:39;9.70;99.90
18083;DHT22;9168;51.194;6.840;2023-04-01T06:08:10;9.80;99.90
18083;DHT22;9168;51.194;6.840;2023-04-01T06:10:49;9.70;99.90
18083;DHT22;9168;51.194;6.840;2023-04-01T06:13:25;9.70;99.90
18083;DHT22;9168;51.194;6.840;2023-04-01T06:16:00;9.70;99.90
18083;DHT22;9168;51.194;6.840;2023-04-01T06:18:50;9.70;99.90
18083;DHT22;9168;51.194;6.840;2023-04-01T06:21:33;9.70;99.90
18083;DHT22;9168;51.194;6.840;2023-04-01T06:24:21;9.60;99.90
18083;DHT22;9168;51.194;6.840;2023-04-01T06:26:57;9.60;99.90
18083;DHT22;9168;51.194;6.840;2023-04-01T06:29:47;9.60;99.90
18083;DHT22;9168;51.194;6.840;2023-04-01T06:32:31;9.70;99.90
18083;DHT22;9168;51.194;6.840;2023-04-01T06:35:29;9.70;99.90
18083;DHT22;9168;51.194;6.840;2023-04-01T06:43:59;9.70;99.90
18083;DHT22;9168;51.194;6.840;2023-04-01T06:46:40;9.80;99.90
18083;DHT22;9168;51.194;6.840;2023-04-01T06:49:27;9.80;99.90
18083;DHT22;9168;51.194;6.840;2023-04-01T06:52:01;9.70;99.90
18083;DHT22;9168;51.194;6.840;2023-04-01T06:54:33;9.70;99.90
18083;DHT22;9168;51.194;6.840;2023-04-01T06:57:05;9.70;99.90
18083;DHT22;9168;51.194;6.840;2023-04-01T06:59:39;9.70;99.90
18083;DHT22;9168;51.194;6.840;2023-04-01T07:02:19;9.80;99.90
18083;DHT22;9168;51.194;6.840;2023-04-01T07:04:51;9.80;99.90
18083;DHT22;9168;51.194;6.840;2023-04-01T07:07:24;9.80;99.90
18083;DHT22;9168;51.194;6.840;2023-04-01T07:09:55;9.80;99.90
18083;DHT22;9168;51.194;6.840;2023-04-01T07:12:32;9.80;99.90
18083;DHT22;9168;51.194;6.840;2023-04-01T07:15:06;9.70;99.90
18083;DHT22;9168;51.194;6.840;2023-04-01T07:17:41;9.70;99.90
18083;DHT22;9168;51.194;6.840;2023-04-01T07:20:15;9.70;99.90
18083;DHT22;9168;51.194;6.840;2023-04-01T07:22:45;9.80;99.90
18083;DHT22;9168;51.194;6.840;2023-04-01T07:25:16;9.80;99.90
18083;DHT22;9168;51.194;6.840;2023-04-01T07:27:44;9.90;99.90
18083;DHT22;9168;51.194;6.840;2023-04-01T07:30:15;9.90;99.90
18083;DHT22;9168;51.194;6.840;2023-04-01T07:32:47;9.80;99.90
18083;DHT22;9168;51.194;6.840;2023-04-01T07:35:23;9.80;99.90
18083;DHT22;9168;51.194;6.840;2023-04-01T07:38:02;9.90;99.90
18083;DHT22;9168;51.194;6.840;2023-04-01T07:40:40;9.90;99.90
18083;DHT22;9168;51.194;6.840;2023-04-01T07:43:26;9.90;99.90
18083;DHT22;9168;51.194;6.840;2023-04-01T07:46:05;9.90;99.90
18083;DHT22;9168;51.194;6.840;2023-04-01T07:48:38;9.90;99.90
18083;DHT22;9168;51.194;6.840;2023-04-01T07:51:15;10.00;99.90
18083;DHT22;9168;51.194;6.840;2023-04-01T07:53:48;10.00;99.90
18083;DHT22;9168;51.194;6.840;2023-04-01T07:56:20;10.00;99.90
18083;DHT22;9168;51.194;6.840;2023-04-01T07:58:55;10.00;99.90
18083;DHT22;9168;51.194;6.840;2023-04-01T08:01:30;10.00;99.90
18083;DHT22;9168;51.194;6.840;2023-04-01T08:04:25;10.00;99.90
18083;DHT22;9168;51.194;6.840;2023-04-01T08:06:58;10.00;99.90
18083;DHT22;9168;51.194;6.840;2023-04-01T08:09:40;9.90;99.90
18083;DHT22;9168;51.194;6.840;2023-04-01T08:12:17;9.90;99.90
18083;DHT22;9168;51.194;6.840;2023-04-01T08:14:55;9.90;99.90
18083;DHT22;9168;51.194;6.840;2023-04-01T08:17:30;9.80;99.90
18083;DHT22;9168;51.194;6.840;2023-04-01T08:22:50;9.80;99.90
18083;DHT22;9168;51.194;6.840;2023-04-01T08:25:20;9.80;99.90
18083;DHT22;9168;51.194;6.840;2023-04-01T08:27:52;9.80;99.90
18083;DHT22;9168;51.194;6.840;2023-04-01T08:30:23;9.90;99.90
18083;DHT22;9168;51.194;6.840;2023-04-01T08:32:55;10.00;99.90
18083;DHT22;9168;51.194;6.840;2023-04-01T08:35:28;10.00;99.90
18083;DHT22;9168;51.194;6.840;2023-04-01T08:38:01;10.00;99.90
18083;DHT22;9168;51.194;6.840;2023-04-01T08:40:39;10.00;99.90
18083;DHT22;9168;51.194;6.840;2023-04-01T08:43:16;10.10;99.90
18083;DHT22;9168;51.194;6.840;2023-04-01T08:46:00;10.10;99.90
18083;DHT22;9168;51.194;6.840;2023-04-01T08:48:48;10.10;99.90
18083;DHT22;9168;51.194;6.840;2023-04-01T08:52:02;10.10;99.90
18083;DHT22;9168;51.194;6.840;2023-04-01T08:54:45;10.10;99.90
18083;DHT22;9168;51.194;6.840;2023-04-01T08:57:20;10.10;99.90
18083;DHT22;9168;51.194;6.840;2023-04-01T08:59:59;10.20;99.90
18083;DHT22;9168;51.194;6.840;2023-04-01T09:02:51;10.10;99.90
18083;DHT22;9168;51.194;6.840;2023-04-01T09:08:29;10.20;99.90
18083;DHT22;9168;51.194;6.840;2023-04-01T09:11:05;10.20;99.90
18083;DHT22;9168;51.194;6.840;2023-04-01T09:14:06;10.20;99.90
18083;DHT22;9168;51.194;6.840;2023-04-01T09:20:19;10.20;99.90
18083;DHT22;9168;51.194;6.840;2023-04-01T09:23:08;10.20;99.90
18083;DHT22;9168;51.194;6.840;2023-04-01T09:25:45;10.20;99.90
18083;DHT22;9168;51.194;6.840;2023-04-01T09:28:17;10.10;99.90
18083;DHT22;9168;51.194;6.840;2023-04-01T09:36:45;10.10;99.90
18083;DHT22;9168;51.194;6.840;2023-04-01T09:39:35;10.10;99.90
18083;DHT22;9168;51.194;6.840;2023-04-01T09:42:31;10.10;99.90
18083;DHT22;9168;51.194;6.840;2023-04-01T09:45:01;10.10;99.90
18083;DHT22;9168;51.194;6.840;2023-04-01T09:47:47;10.10;99.90
18083;DHT22;9168;51.194;6.840;2023-04-01T09:50:34;10.10;99.90
18083;DHT22;9168;51.194;6.840;2023-04-01T09:53:14;10.10;99.90
18083;DHT22;9168;51.194;6.840;2023-04-01T10:02:27;10.10;99.90
18083;DHT22;9168;51.194;6.840;2023-04-01T10:08:35;10.20;99.90
18083;DHT22;9168;51.194;6.840;2023-04-01T10:58:53;10.30;99.90
18083;DHT22;9168;51.194;6.840;2023-04-01T11:11:55;10.40;99.90
18083;DHT22;9168;51.194;6.840;2023-04-01T11:14:59;10.50;99.90
18083;DHT22;9168;51.194;6.840;2023-04-01T11:23:54;10.50;99.90
18083;DHT22;9168;51.194;6.840;2023-04-01T11:26:42;10.50;99.90
18083;DHT22;9168;51.194;6.840;2023-04-01T11:29:41;10.50;99.90
18083;DHT22;9168;51.194;6.840;2023-04-01T11:32:24;10.50;99.90
18083;DHT22;9168;51.194;6.840;2023-04-01T11:35:19;10.50;99.90
18083;DHT22;9168;51.194;6.840;2023-04-01T11:37:55;10.50;99.90
18083;DHT22;9168;51.194;6.840;2023-04-01T11:40:31;10.50;99.90
18083;DHT22;9168;51.194;6.840;2023-04-01T11:43:08;10.50;99.90
18083;DHT22;9168;51.194;6.840;2023-04-01T11:45:43;10.50;99.90
18083;DHT22;9168;51.194;6.840;2023-04-01T11:48:29;10.50;99.90
18083;DHT22;9168;51.194;6.840;2023-04-01T11:51:16;10.50;99.90
18083;DHT22;9168;51.194;6.840;2023-04-01T11:53:52;10.60;99.90
18083;DHT22;9168;51.194;6.840;2023-04-01T11:56:36;10.60;99.90
18083;DHT22;9168;51.194;6.840;2023-04-01T11:59:22;10.60;99.90
18083;DHT22;9168;51.194;6.840;2023-04-01T12:01:59;10.60;99.90
18083;DHT22;9168;51.194;6.840;2023-04-01T12:04:59;10.60;99.90
18083;DHT22;9168;51.194;6.840;2023-04-01T12:07:51;10.70;99.90
18083;DHT22;9168;51.194;6.840;2023-04-01T12:10:21;10.70;99.90
18083;DHT22;9168;51.194;6.840;2023-04-01T12:12:58;10.80;99.90
18083;DHT22;9168;51.194;6.840;2023-04-01T12:15:32;10.80;99.90
18083;DHT22;9168;51.194;6.840;2023-04-01T12:18:12;10.70;99.90
18083;DHT22;9168;51.194;6.840;2023-04-01T12:20:49;10.70;99.90
18083;DHT22;9168;51.194;6.840;2023-04-01T12:23:42;10.70;99.90
18083;DHT22;9168;51.194;6.840;2023-04-01T12:26:28;10.70;99.90
18083;DHT22;9168;51.194;6.840;2023-04-01T12:29:09;10.70;99.90
18083;DHT22;9168;51.194;6.840;2023-04-01T12:31:48;10.70;99.90
18083;DHT22;9168;51.194;6.840;2023-04-01T12:34:35;10.70;99.90
18083;DHT22;9168;51.194;6.840;2023-04-01T12:37:13;10.70;99.90
18083;DHT22;9168;51.194;6.840;2023-04-01T12:40:16;10.80;99.90
18083;DHT22;9168;51.194;6.840;2023-04-01T12:42:55;10.70;99.90
18083;DHT22;9168;51.194;6.840;2023-04-01T12:45:29;10.80;99.90
18083;DHT22;9168;51.194;6.840;2023-04-01T12:51:24;10.80;99.90
18083;DHT22;9168;51.194;6.840;2023-04-01T12:57:03;10.80;99.90
18083;DHT22;9168;51.194;6.840;2023-04-01T12:59:49;10.80;99.90
18083;DHT22;9168;51.194;6.840;2023-04-01T13:02:27;10.70;99.90
18083;DHT22;9168;51.194;6.840;2023-04-01T13:05:34;10.80;99.90
18083;DHT22;9168;51.194;6.840;2023-04-01T13:08:11;10.80;99.90
18083;DHT22;9168;51.194;6.840;2023-04-01T13:10:53;10.70;99.90
18083;DHT22;9168;51.194;6.840;2023-04-01T13:16:21;10.80;99.90
18083;DHT22;9168;51.194;6.840;2023-04-01T13:18:57;10.80;99.90
18083;DHT22;9168;51.194;6.840;2023-04-01T13:21:34;10.80;99.90
18083;DHT22;9168;51.194;6.840;2023-04-01T13:24:09;10.80;99.90
18083;DHT22;9168;51.194;6.840;2023-04-01T13:26:45;10.80;99.90
18083;DHT22;9168;51.194;6.840;2023-04-01T13:29:15;10.80;99.90
18083;DHT22;9168;51.194;6.840;2023-04-01T13:31:55;10.80;99.90
18083;DHT22;9168;51.194;6.840;2023-04-01T13:34:37;10.90;99.90
18083;DHT22;9168;51.194;6.840;2023-04-01T13:37:18;11.00;99.90
18083;DHT22;9168;51.194;6.840;2023-04-01T13:42:47;11.00;99.90
18083;DHT22;9168;51.194;6.840;2023-04-01T13:45:18;11.00;99.90
18083;DHT22;9168;51.194;6.840;2023-04-01T13:48:12;11.10;99.90
18083;DHT22;9168;51.194;6.840;2023-04-01T13:51:09;11.10;99.90
18083;DHT22;9168;51.194;6.840;2023-04-01T13:53:59;11.00;99.90
18083;DHT22;9168;51.194;6.840;2023-04-01T13:56:36;11.00;99.90
18083;DHT22;9168;51.194;6.840;2023-04-01T13:59:31;11.10;99.90
18083;DHT22;9168;51.194;6.840;2023-04-01T14:02:20;11.10;99.90
18083;DHT22;9168;51.194;6.840;2023-04-01T14:05:06;11.10;99.90
18083;DHT22;9168;51.194;6.840;2023-04-01T14:07:49;11.10;99.90
18083;DHT22;9168;51.194;6.840;2023-04-01T14:10:22;11.00;99.90
18083;DHT22;9168;51.194;6.840;2023-04-01T14:12:57;11.00;99.90
18083;DHT22;9168;51.194;6.840;2023-04-01T14:15:39;11.00;99.90
18083;DHT22;9168;51.194;6.840;2023-04-01T14:21:35;11.00;99.90
18083;DHT22;9168;51.194;6.840;2023-04-01T14:24:18;11.00;99.90
18083;DHT22;9168;51.194;6.840;2023-04-01T14:27:21;11.00;99.90
18083;DHT22;9168;51.194;6.840;2023-04-01T14:30:04;11.00;99.90
18083;DHT22;9168;51.194;6.840;2023-04-01T14:32:45;11.00;99.90
18083;DHT22;9168;51.194;6.840;2023-04-01T14:35:26;11.00;99.90
18083;DHT22;9168;51.194;6.840;2023-04-01T14:38:25;11.00;99.90
18083;DHT22;9168;51.194;6.840;2023-04-01T14:40:56;10.90;99.90
18083;DHT22;9168;51.194;6.840;2023-04-01T14:43:49;10.90;99.90
18083;DHT22;9168;51.194;6.840;2023-04-01T14:46:40;11.00;99.90
18083;DHT22;9168;51.194;6.840;2023-04-01T14:49:21;11.00;99.90
18083;DHT22;9168;51.194;6.840;2023-04-01T14:51:49;11.00;99.90
18083;DHT22;9168;51.194;6.840;2023-04-01T14:54:20;11.10;99.90
18083;DHT22;9168;51.194;6.840;2023-04-01T14:56:50;11.10;99.90
18083;DHT22;9168;51.194;6.840;2023-04-01T16:04:48;10.70;99.90
18083;DHT22;9168;51.194;6.840;2023-04-01T16:07:26;10.60;99.90
18083;DHT22;9168;51.194;6.840;2023-04-01T16:10:16;10.60;99.90
18083;DHT22;9168;51.194;6.840;2023-04-01T16:12:53;10.50;99.90
18083;DHT22;9168;51.194;6.840;2023-04-01T16:15:26;10.50;99.90
18083;DHT22;9168;51.194;6.840;2023-04-01T16:18:08;10.50;99.90
18083;DHT22;9168;51.194;6.840;2023-04-01T16:20:46;10.60;99.90
18083;DHT22;9168;51.194;6.840;2023-04-01T16:23:20;10.60;99.90
18083;DHT22;9168;51.194;6.840;2023-04-01T16:25:55;10.50;99.90
18083;DHT22;9168;51.194;6.840;2023-04-01T16:28:29;10.60;99.90
18083;DHT22;9168;51.194;6.840;2023-04-01T16:31:00;10.60;99.90
18083;DHT22;9168;51.194;6.840;2023-04-01T16:33:38;10.60;99.90
18083;DHT22;9168;51.194;6.840;2023-04-01T16:36:17;10.60;99.90
18083;DHT22;9168;51.194;6.840;2023-04-01T16:38:51;10.60;99.90
18083;DHT22;9168;51.194;6.840;2023-04-01T16:41:24;10.50;99.90
18083;DHT22;9168;51.194;6.840;2023-04-01T16:43:56;10.50;99.90
18083;DHT22;9168;51.194;6.840;2023-04-01T16:46:32;10.50;99.90
18083;DHT22;9168;51.194;6.840;2023-04-01T16:49:13;10.50;99.90
18083;DHT22;9168;51.194;6.840;2023-04-01T16:51:47;10.50;99.90
18083;DHT22;9168;51.194;6.840;2023-04-01T16:54:26;10.50;99.90
18083;DHT22;9168;51.194;6.840;2023-04-01T16:56:55;10.40;99.90
18083;DHT22;9168;51.194;6.840;2023-04-01T16:59:26;10.50;99.90
18083;DHT22;9168;51.194;6.840;2023-04-01T17:01:56;10.50;99.90
18083;DHT22;9168;51.194;6.840;2023-04-01T17:04:31;10.50;99.90
18083;DHT22;9168;51.194;6.840;2023-04-01T17:07:10;10.50;99.90
18083;DHT22;9168;51.194;6.840;2023-04-01T17:09:56;10.50;99.90
18083;DHT22;9168;51.194;6.840;2023-04-01T17:12:32;10.50;99.90
18083;DHT22;9168;51.194;6.840;2023-04-01T17:15:10;10.40;99.90
18083;DHT22;9168;51.194;6.840;2023-04-01T17:17:45;10.40;99.90
18083;DHT22;9168;51.194;6.840;2023-04-01T17:20:31;10.40;99.90
18083;DHT22;9168;51.194;6.840;2023-04-01T17:23:09;10.40;99.90
18083;DHT22;9168;51.194;6.840;2023-04-01T17:28:36;10.30;99.90
18083;DHT22;9168;51.194;6.840;2023-04-01T17:31:10;10.30;99.90
18083;DHT22;9168;51.194;6.840;2023-04-01T17:33:59;10.20;99.90
18083;DHT22;9168;51.194;6.840;2023-04-01T17:36:40;10.30;99.90
18083;DHT22;9168;51.194;6.840;2023-04-01T17:39:37;10.20;99.90
18083;DHT22;9168;51.194;6.840;2023-04-01T17:42:09;10.30;99.90
18083;DHT22;9168;51.194;6.840;2023-04-01T17:44:56;10.30;99.90
18083;DHT22;9168;51.194;6.840;2023-04-01T17:47:35;10.30;99.90
18083;DHT22;9168;51.194;6.840;2023-04-01T17:50:27;10.30;99.90
18083;DHT22;9168;51.194;6.840;2023-04-01T17:53:02;10.30;99.90
18083;DHT22;9168;51.194;6.840;2023-04-01T17:55:46;10.20;99.90
18083;DHT22;9168;51.194;6.840;2023-04-01T17:58:18;10.20;99.90
18083;DHT22;9168;51.194;6.840;2023-04-01T18:01:05;10.30;99.90
18083;DHT22;9168;51.194;6.840;2023-04-01T18:06:54;10.20;99.90
18083;DHT22;9168;51.194;6.840;2023-04-01T18:09:35;10.30;99.90
18083;DHT22;9168;51.194;6.840;2023-04-01T18:12:12;10.20;99.90
18083;DHT22;9168;51.194;6.840;2023-04-01T18:17:41;10.20;99.90
18083;DHT22;9168;51.194;6.840;2023-04-01T18:20:28;10.20;99.90
18083;DHT22;9168;51.194;6.840;2023-04-01T18:22:59;10.20;99.90
18083;DHT22;9168;51.194;6.840;2023-04-01T18:25:33;10.20;99.90
18083;DHT22;9168;51.194;6.840;2023-04-01T18:28:26;10.20;99.90
18083;DHT22;9168;51.194;6.840;2023-04-01T18:31:06;10.20;99.90
18083;DHT22;9168;51.194;6.840;2023-04-01T18:33:42;10.10;99.90
18083;DHT22;9168;51.194;6.840;2023-04-01T18:36:18;10.10;99.90
18083;DHT22;9168;51.194;6.840;2023-04-01T18:38:50;10.10;99.90
18083;DHT22;9168;51.194;6.840;2023-04-01T18:41:28;10.00;99.90
18083;DHT22;9168;51.194;6.840;2023-04-01T18:44:11;10.00;99.90
18083;DHT22;9168;51.194;6.840;2023-04-01T18:46:47;10.00;99.90
18083;DHT22;9168;51.194;6.840;2023-04-01T18:49:20;10.00;99.90
18083;DHT22;9168;51.194;6.840;2023-04-01T18:51:50;10.00;99.90
18083;DHT22;9168;51.194;6.840;2023-04-01T18:54:23;10.00;99.90
18083;DHT22;9168;51.194;6.840;2023-04-01T18:57:04;10.00;99.90
18083;DHT22;9168;51.194;6.840;2023-04-01T18:59:39;10.00;99.90
18083;DHT22;9168;51.194;6.840;2023-04-01T19:02:16;10.00;99.90
18083;DHT22;9168;51.194;6.840;2023-04-01T19:04:50;10.00;99.90
18083;DHT22;9168;51.194;6.840;2023-04-01T19:07:41;10.00;99.90
18083;DHT22;9168;51.194;6.840;2023-04-01T19:10:31;10.00;99.90
18083;DHT22;9168;51.194;6.840;2023-04-01T19:13:17;10.00;99.90
18083;DHT22;9168;51.194;6.840;2023-04-01T19:15:52;10.00;99.90
18083;DHT22;9168;51.194;6.840;2023-04-01T19:18:40;10.00;99.90
18083;DHT22;9168;51.194;6.840;2023-04-01T19:21:13;10.00;99.90
18083;DHT22;9168;51.194;6.840;2023-04-01T19:24:09;9.90;99.90
18083;DHT22;9168;51.194;6.840;2023-04-01T19:26:46;9.90;99.90
18083;DHT22;9168;51.194;6.840;2023-04-01T19:29:24;9.90;99.90
18083;DHT22;9168;51.194;6.840;2023-04-01T19:32:01;9.80;99.90
18083;DHT22;9168;51.194;6.840;2023-04-01T19:34:38;9.80;99.90
18083;DHT22;9168;51.194;6.840;2023-04-01T19:37:20;9.80;99.90
18083;DHT22;9168;51.194;6.840;2023-04-01T19:39:54;9.80;99.90
18083;DHT22;9168;51.194;6.840;2023-04-01T19:42:32;9.80;99.90
18083;DHT22;9168;51.194;6.840;2023-04-01T19:45:14;9.80;99.90
18083;DHT22;9168;51.194;6.840;2023-04-01T19:47:55;9.80;99.90
18083;DHT22;9168;51.194;6.840;2023-04-01T19:50:31;9.90;99.90
18083;DHT22;9168;51.194;6.840;2023-04-01T19:53:06;9.90;99.90
18083;DHT22;9168;51.194;6.840;2023-04-01T19:55:39;9.90;99.90
18083;DHT22;9168;51.194;6.840;2023-04-01T19:58:16;9.90;99.90
18083;DHT22;9168;51.194;6.840;2023-04-01T20:00:49;9.90;99.90
18083;DHT22;9168;51.194;6.840;2023-04-01T20:03:32;9.90;99.90
18083;DHT22;9168;51.194;6.840;2023-04-01T20:06:08;9.90;99.90
18083;DHT22;9168;51.194;6.840;2023-04-01T20:08:39;9.90;99.90
18083;DHT22;9168;51.194;6.840;2023-04-01T20:11:21;9.90;99.90
18083;DHT22;9168;51.194;6.840;2023-04-01T20:14:03;9.90;99.90
18083;DHT22;9168;51.194;6.840;2023-04-01T20:16:50;9.90;99.90
18083;DHT22;9168;51.194;6.840;2023-04-01T20:19:27;9.80;99.90
18083;DHT22;9168;51.194;6.840;2023-04-01T20:21:58;9.90;99.90
18083;DHT22;9168;51.194;6.840;2023-04-01T20:24:30;9.80;99.90
18083;DHT22;9168;51.194;6.840;2023-04-01T20:27:03;9.90;99.90
18083;DHT22;9168;51.194;6.840;2023-04-01T20:29:54;9.90;99.90
18083;DHT22;9168;51.194;6.840;2023-04-01T20:32:44;9.90;99.90
18083;DHT22;9168;51.194;6.840;2023-04-01T20:35:36;9.80;99.90
18083;DHT22;9168;51.194;6.840;2023-04-01T20:38:23;9.80;99.90
18083;DHT22;9168;51.194;6.840;2023-04-01T20:40:58;9.70;99.90
18083;DHT22;9168;51.194;6.840;2023-04-01T20:44:04;9.70;99.90